Main page
METAR-TAF:

METAR-TAF

Airports :

Bahrain, Bahrain

Bahrain International Airport

latitude: 26-16N, longitude: 050-39E, elevation: 2 m

Current weather observation

The report was made 25 minutes ago, at 11:30 UTC
Wind 8 kt from the Northwest
Temperature 40°C
Humidity 51%
Pressure 997 hPa
Visibility: 7000 m

METAR: OBBI 211130Z 32008KT 7000 NSC 40/28 Q0997 NOSIG

Time: 14:55 (11:55 UTC)

Forecast

The report was made 55 minutes ago, at 11:00 UTC
Forecast valid from 21 at 12 UTC to 22 at 18 UTC
Wind 8 kt from the North/Northeast
Visibility: 7000 m
Temporary
from 21 at 12 UTC to 22 at 18 UTC
Visibility: 4000 m
haze

TAF: OBBI 211100Z 2112/2218 03008KT 7000 NSC TEMPO 2112/2218 4000 HZ

Weather observations and forecasts of more than 4000 airports (METAR and TAF reports).

The available stations are represented by yellow and red dots on the map.

Hover mouse over dot to see the name of the station.

Then click to see weather observations and forecasts.

To change the map : click on the green buttons with a black cross to zoom in, on the green button with a dash to zoom out, or on the green arrows for adjacent maps.


METAR-TAF: